sensor_id;sensor_type;location;lat;lon;timestamp;P1;durP1;ratioP1;P2;durP2;ratioP2
22764;SDS011;11549;50.852;3.816;2024-01-07T00:01:20;15.05;;;9.80;;
22764;SDS011;11549;50.852;3.816;2024-01-07T00:03:48;15.90;;;10.52;;
22764;SDS011;11549;50.852;3.816;2024-01-07T00:06:17;15.93;;;9.98;;
22764;SDS011;11549;50.852;3.816;2024-01-07T00:08:47;14.15;;;9.90;;
22764;SDS011;11549;50.852;3.816;2024-01-07T00:11:16;15.38;;;9.23;;
22764;SDS011;11549;50.852;3.816;2024-01-07T00:13:44;16.67;;;9.98;;
22764;SDS011;11549;50.852;3.816;2024-01-07T00:16:13;15.50;;;10.40;;
22764;SDS011;11549;50.852;3.816;2024-01-07T00:18:41;15.25;;;9.90;;
22764;SDS011;11549;50.852;3.816;2024-01-07T00:21:11;13.48;;;9.25;;
22764;SDS011;11549;50.852;3.816;2024-01-07T00:23:39;13.07;;;10.10;;
22764;SDS011;11549;50.852;3.816;2024-01-07T00:26:09;16.52;;;10.18;;
22764;SDS011;11549;50.852;3.816;2024-01-07T00:28:37;15.50;;;10.52;;
22764;SDS011;11549;50.852;3.816;2024-01-07T00:31:06;13.27;;;9.40;;
22764;SDS011;11549;50.852;3.816;2024-01-07T00:33:35;13.98;;;9.90;;
22764;SDS011;11549;50.852;3.816;2024-01-07T00:36:05;15.60;;;8.98;;
22764;SDS011;11549;50.852;3.816;2024-01-07T00:38:33;12.10;;;9.35;;
22764;SDS011;11549;50.852;3.816;2024-01-07T00:41:02;13.43;;;9.07;;
22764;SDS011;11549;50.852;3.816;2024-01-07T00:43:32;13.98;;;9.35;;
22764;SDS011;11549;50.852;3.816;2024-01-07T00:46:00;14.00;;;8.25;;
22764;SDS011;11549;50.852;3.816;2024-01-07T00:48:29;10.32;;;7.30;;
22764;SDS011;11549;50.852;3.816;2024-01-07T00:50:58;10.18;;;6.80;;
22764;SDS011;11549;50.852;3.816;2024-01-07T00:53:25;12.73;;;7.05;;
22764;SDS011;11549;50.852;3.816;2024-01-07T00:55:54;9.65;;;6.40;;
22764;SDS011;11549;50.852;3.816;2024-01-07T00:58:22;10.30;;;5.88;;
22764;SDS011;11549;50.852;3.816;2024-01-07T01:00:52;10.90;;;6.13;;
22764;SDS011;11549;50.852;3.816;2024-01-07T01:03:21;10.00;;;5.95;;
22764;SDS011;11549;50.852;3.816;2024-01-07T01:05:49;9.00;;;6.20;;
22764;SDS011;11549;50.852;3.816;2024-01-07T01:08:18;10.05;;;6.55;;
22764;SDS011;11549;50.852;3.816;2024-01-07T01:10:46;9.98;;;6.80;;
22764;SDS011;11549;50.852;3.816;2024-01-07T01:13:14;11.07;;;6.53;;
22764;SDS011;11549;50.852;3.816;2024-01-07T01:15:43;10.50;;;6.63;;
22764;SDS011;11549;50.852;3.816;2024-01-07T01:18:13;8.13;;;5.88;;
22764;SDS011;11549;50.852;3.816;2024-01-07T01:20:42;10.65;;;6.57;;
22764;SDS011;11549;50.852;3.816;2024-01-07T01:23:10;9.77;;;6.07;;
22764;SDS011;11549;50.852;3.816;2024-01-07T01:25:39;9.75;;;6.40;;
22764;SDS011;11549;50.852;3.816;2024-01-07T01:28:07;11.13;;;6.65;;
22764;SDS011;11549;50.852;3.816;2024-01-07T01:30:37;10.15;;;6.50;;
22764;SDS011;11549;50.852;3.816;2024-01-07T01:33:05;11.98;;;6.97;;
22764;SDS011;11549;50.852;3.816;2024-01-07T01:35:35;10.55;;;6.68;;
22764;SDS011;11549;50.852;3.816;2024-01-07T01:38:03;9.73;;;6.68;;
22764;SDS011;11549;50.852;3.816;2024-01-07T01:40:32;10.55;;;6.88;;
22764;SDS011;11549;50.852;3.816;2024-01-07T01:43:00;10.20;;;7.30;;
22764;SDS011;11549;50.852;3.816;2024-01-07T01:45:29;9.60;;;6.90;;
22764;SDS011;11549;50.852;3.816;2024-01-07T01:47:58;11.65;;;7.40;;
22764;SDS011;11549;50.852;3.816;2024-01-07T01:50:26;10.85;;;7.10;;
22764;SDS011;11549;50.852;3.816;2024-01-07T01:52:56;11.70;;;7.50;;
22764;SDS011;11549;50.852;3.816;2024-01-07T01:55:24;11.70;;;7.32;;
22764;SDS011;11549;50.852;3.816;2024-01-07T01:57:53;13.15;;;7.40;;
22764;SDS011;11549;50.852;3.816;2024-01-07T02:03:07;10.82;;;7.68;;
22764;SDS011;11549;50.852;3.816;2024-01-07T02:05:40;11.65;;;7.15;;
22764;SDS011;11549;50.852;3.816;2024-01-07T02:08:09;12.80;;;8.40;;
22764;SDS011;11549;50.852;3.816;2024-01-07T02:10:39;14.27;;;8.98;;
22764;SDS011;11549;50.852;3.816;2024-01-07T02:13:08;12.88;;;8.77;;
22764;SDS011;11549;50.852;3.816;2024-01-07T02:15:38;14.02;;;9.15;;
22764;SDS011;11549;50.852;3.816;2024-01-07T02:18:06;14.40;;;8.90;;
22764;SDS011;11549;50.852;3.816;2024-01-07T02:20:35;13.10;;;9.35;;
22764;SDS011;11549;50.852;3.816;2024-01-07T02:23:03;14.27;;;9.70;;
22764;SDS011;11549;50.852;3.816;2024-01-07T02:25:35;17.48;;;10.85;;
22764;SDS011;11549;50.852;3.816;2024-01-07T02:28:04;16.80;;;10.75;;
22764;SDS011;11549;50.852;3.816;2024-01-07T02:30:33;15.15;;;10.38;;
22764;SDS011;11549;50.852;3.816;2024-01-07T02:33:02;14.77;;;10.20;;
22764;SDS011;11549;50.852;3.816;2024-01-07T02:35:31;17.50;;;11.73;;
22764;SDS011;11549;50.852;3.816;2024-01-07T02:37:59;16.52;;;10.93;;
22764;SDS011;11549;50.852;3.816;2024-01-07T02:40:28;15.77;;;10.90;;
22764;SDS011;11549;50.852;3.816;2024-01-07T02:42:58;16.95;;;11.68;;
22764;SDS011;11549;50.852;3.816;2024-01-07T02:45:26;19.35;;;12.25;;
22764;SDS011;11549;50.852;3.816;2024-01-07T02:47:54;17.02;;;11.55;;
22764;SDS011;11549;50.852;3.816;2024-01-07T02:50:23;18.65;;;12.88;;
22764;SDS011;11549;50.852;3.816;2024-01-07T02:52:51;17.30;;;12.60;;
22764;SDS011;11549;50.852;3.816;2024-01-07T02:55:20;19.67;;;13.20;;
22764;SDS011;11549;50.852;3.816;2024-01-07T02:57:48;20.02;;;13.60;;
22764;SDS011;11549;50.852;3.816;2024-01-07T03:00:18;22.75;;;14.50;;
22764;SDS011;11549;50.852;3.816;2024-01-07T03:02:47;22.30;;;14.32;;
22764;SDS011;11549;50.852;3.816;2024-01-07T03:05:15;21.27;;;14.18;;
22764;SDS011;11549;50.852;3.816;2024-01-07T03:07:44;22.20;;;14.65;;
22764;SDS011;11549;50.852;3.816;2024-01-07T03:10:13;20.58;;;14.43;;
22764;SDS011;11549;50.852;3.816;2024-01-07T03:12:41;19.83;;;13.38;;
22764;SDS011;11549;50.852;3.816;2024-01-07T03:15:10;21.15;;;13.75;;
22764;SDS011;11549;50.852;3.816;2024-01-07T03:17:40;20.65;;;14.43;;
22764;SDS011;11549;50.852;3.816;2024-01-07T03:20:10;22.15;;;15.10;;
22764;SDS011;11549;50.852;3.816;2024-01-07T03:22:38;21.50;;;14.82;;
22764;SDS011;11549;50.852;3.816;2024-01-07T03:25:07;22.63;;;14.93;;
22764;SDS011;11549;50.852;3.816;2024-01-07T03:27:36;22.83;;;14.75;;
22764;SDS011;11549;50.852;3.816;2024-01-07T03:30:04;25.30;;;16.45;;
22764;SDS011;11549;50.852;3.816;2024-01-07T03:32:34;23.90;;;15.52;;
22764;SDS011;11549;50.852;3.816;2024-01-07T03:35:05;24.35;;;16.55;;
22764;SDS011;11549;50.852;3.816;2024-01-07T03:37:35;23.08;;;15.88;;
22764;SDS011;11549;50.852;3.816;2024-01-07T03:40:07;24.38;;;15.88;;
22764;SDS011;11549;50.852;3.816;2024-01-07T03:42:38;23.08;;;15.82;;
22764;SDS011;11549;50.852;3.816;2024-01-07T03:45:06;24.77;;;16.20;;
22764;SDS011;11549;50.852;3.816;2024-01-07T03:47:35;25.75;;;16.88;;
22764;SDS011;11549;50.852;3.816;2024-01-07T03:50:06;23.15;;;16.10;;
22764;SDS011;11549;50.852;3.816;2024-01-07T03:52:34;22.98;;;15.77;;
22764;SDS011;11549;50.852;3.816;2024-01-07T03:55:03;24.85;;;17.02;;
22764;SDS011;11549;50.852;3.816;2024-01-07T03:57:32;23.90;;;16.35;;
22764;SDS011;11549;50.852;3.816;2024-01-07T04:00:01;23.15;;;16.08;;
22764;SDS011;11549;50.852;3.816;2024-01-07T04:02:30;27.20;;;17.63;;
22764;SDS011;11549;50.852;3.816;2024-01-07T04:04:58;25.35;;;16.67;;
22764;SDS011;11549;50.852;3.816;2024-01-07T04:07:28;26.33;;;17.88;;
22764;SDS011;11549;50.852;3.816;2024-01-07T04:09:57;28.08;;;18.30;;
22764;SDS011;11549;50.852;3.816;2024-01-07T04:12:26;30.95;;;19.55;;
22764;SDS011;11549;50.852;3.816;2024-01-07T04:14:54;31.23;;;20.52;;
22764;SDS011;11549;50.852;3.816;2024-01-07T04:17:23;30.88;;;20.33;;
22764;SDS011;11549;50.852;3.816;2024-01-07T04:19:52;31.30;;;21.02;;
22764;SDS011;11549;50.852;3.816;2024-01-07T04:22:20;30.80;;;20.15;;
22764;SDS011;11549;50.852;3.816;2024-01-07T04:24:50;30.80;;;20.70;;
22764;SDS011;11549;50.852;3.816;2024-01-07T04:27:19;31.10;;;20.00;;
22764;SDS011;11549;50.852;3.816;2024-01-07T04:29:48;30.70;;;19.80;;
22764;SDS011;11549;50.852;3.816;2024-01-07T04:32:16;29.08;;;19.70;;
22764;SDS011;11549;50.852;3.816;2024-01-07T04:34:46;31.15;;;20.17;;
22764;SDS011;11549;50.852;3.816;2024-01-07T04:37:14;27.65;;;19.48;;
22764;SDS011;11549;50.852;3.816;2024-01-07T04:39:43;29.02;;;20.70;;
22764;SDS011;11549;50.852;3.816;2024-01-07T04:42:13;30.00;;;19.77;;
22764;SDS011;11549;50.852;3.816;2024-01-07T04:44:41;27.85;;;19.42;;
22764;SDS011;11549;50.852;3.816;2024-01-07T04:47:23;27.27;;;19.27;;
22764;SDS011;11549;50.852;3.816;2024-01-07T04:49:53;26.13;;;18.88;;
22764;SDS011;11549;50.852;3.816;2024-01-07T04:52:22;25.92;;;18.92;;
22764;SDS011;11549;50.852;3.816;2024-01-07T04:54:51;26.88;;;18.83;;
22764;SDS011;11549;50.852;3.816;2024-01-07T04:57:21;27.15;;;19.77;;
22764;SDS011;11549;50.852;3.816;2024-01-07T04:59:50;28.33;;;20.10;;
22764;SDS011;11549;50.852;3.816;2024-01-07T05:02:19;28.02;;;19.73;;
22764;SDS011;11549;50.852;3.816;2024-01-07T05:04:47;28.02;;;20.52;;
22764;SDS011;11549;50.852;3.816;2024-01-07T05:07:16;27.45;;;20.48;;
22764;SDS011;11549;50.852;3.816;2024-01-07T05:09:44;25.55;;;19.05;;
22764;SDS011;11549;50.852;3.816;2024-01-07T05:12:13;28.88;;;20.67;;
22764;SDS011;11549;50.852;3.816;2024-01-07T05:14:43;29.80;;;21.20;;
22764;SDS011;11549;50.852;3.816;2024-01-07T05:17:12;29.02;;;21.13;;
22764;SDS011;11549;50.852;3.816;2024-01-07T05:19:41;28.75;;;21.05;;
22764;SDS011;11549;50.852;3.816;2024-01-07T05:22:10;29.77;;;21.10;;
22764;SDS011;11549;50.852;3.816;2024-01-07T05:24:38;30.45;;;22.60;;
22764;SDS011;11549;50.852;3.816;2024-01-07T05:27:07;31.75;;;22.55;;
22764;SDS011;11549;50.852;3.816;2024-01-07T05:29:36;32.05;;;21.00;;
22764;SDS011;11549;50.852;3.816;2024-01-07T05:32:06;29.77;;;21.73;;
22764;SDS011;11549;50.852;3.816;2024-01-07T05:34:35;31.80;;;22.05;;
22764;SDS011;11549;50.852;3.816;2024-01-07T05:37:03;32.05;;;22.40;;
22764;SDS011;11549;50.852;3.816;2024-01-07T05:39:32;31.60;;;22.38;;
22764;SDS011;11549;50.852;3.816;2024-01-07T05:42:00;33.60;;;23.17;;
22764;SDS011;11549;50.852;3.816;2024-01-07T05:44:29;33.85;;;23.27;;
22764;SDS011;11549;50.852;3.816;2024-01-07T05:46:57;33.65;;;23.65;;
22764;SDS011;11549;50.852;3.816;2024-01-07T05:49:27;37.88;;;23.48;;
22764;SDS011;11549;50.852;3.816;2024-01-07T05:51:56;34.08;;;23.98;;
22764;SDS011;11549;50.852;3.816;2024-01-07T05:54:24;36.92;;;25.63;;
22764;SDS011;11549;50.852;3.816;2024-01-07T05:56:57;35.53;;;24.13;;
22764;SDS011;11549;50.852;3.816;2024-01-07T05:59:25;35.47;;;23.85;;
22764;SDS011;11549;50.852;3.816;2024-01-07T06:01:57;36.30;;;25.52;;
22764;SDS011;11549;50.852;3.816;2024-01-07T06:04:27;34.75;;;24.80;;
22764;SDS011;11549;50.852;3.816;2024-01-07T06:06:56;34.53;;;24.40;;
22764;SDS011;11549;50.852;3.816;2024-01-07T06:09:25;36.45;;;25.15;;
22764;SDS011;11549;50.852;3.816;2024-01-07T06:11:54;34.85;;;24.02;;
22764;SDS011;11549;50.852;3.816;2024-01-07T06:14:22;35.85;;;23.67;;
22764;SDS011;11549;50.852;3.816;2024-01-07T06:16:51;38.65;;;25.30;;
22764;SDS011;11549;50.852;3.816;2024-01-07T06:19:20;34.72;;;23.80;;
22764;SDS011;11549;50.852;3.816;2024-01-07T06:21:50;37.00;;;24.98;;
22764;SDS011;11549;50.852;3.816;2024-01-07T06:24:19;35.90;;;23.90;;
22764;SDS011;11549;50.852;3.816;2024-01-07T06:26:46;38.45;;;25.95;;
22764;SDS011;11549;50.852;3.816;2024-01-07T06:29:14;35.05;;;23.92;;
22764;SDS011;11549;50.852;3.816;2024-01-07T06:31:43;37.42;;;25.05;;
22764;SDS011;11549;50.852;3.816;2024-01-07T06:34:12;39.05;;;25.25;;
22764;SDS011;11549;50.852;3.816;2024-01-07T06:36:42;36.45;;;24.73;;
22764;SDS011;11549;50.852;3.816;2024-01-07T06:39:13;38.35;;;24.58;;
22764;SDS011;11549;50.852;3.816;2024-01-07T06:41:41;37.88;;;25.75;;
22764;SDS011;11549;50.852;3.816;2024-01-07T06:44:10;38.42;;;24.90;;
22764;SDS011;11549;50.852;3.816;2024-01-07T06:46:39;38.15;;;25.02;;
22764;SDS011;11549;50.852;3.816;2024-01-07T06:49:07;36.75;;;23.67;;
22764;SDS011;11549;50.852;3.816;2024-01-07T06:51:37;40.70;;;25.50;;
22764;SDS011;11549;50.852;3.816;2024-01-07T06:54:05;38.58;;;25.35;;
22764;SDS011;11549;50.852;3.816;2024-01-07T06:56:40;40.87;;;25.97;;
22764;SDS011;11549;50.852;3.816;2024-01-07T06:59:09;39.63;;;25.25;;
22764;SDS011;11549;50.852;3.816;2024-01-07T07:01:37;41.15;;;26.13;;
22764;SDS011;11549;50.852;3.816;2024-01-07T07:04:06;40.30;;;24.90;;
22764;SDS011;11549;50.852;3.816;2024-01-07T07:06:35;40.90;;;25.60;;
22764;SDS011;11549;50.852;3.816;2024-01-07T07:09:03;40.85;;;25.55;;
22764;SDS011;11549;50.852;3.816;2024-01-07T07:11:32;40.03;;;26.10;;
22764;SDS011;11549;50.852;3.816;2024-01-07T07:14:01;43.33;;;26.67;;
22764;SDS011;11549;50.852;3.816;2024-01-07T07:16:30;42.17;;;27.20;;
22764;SDS011;11549;50.852;3.816;2024-01-07T07:18:58;42.85;;;26.67;;
22764;SDS011;11549;50.852;3.816;2024-01-07T07:21:27;43.53;;;26.00;;
22764;SDS011;11549;50.852;3.816;2024-01-07T07:23:55;43.08;;;26.88;;
22764;SDS011;11549;50.852;3.816;2024-01-07T07:26:24;42.13;;;26.08;;
22764;SDS011;11549;50.852;3.816;2024-01-07T07:28:52;43.00;;;26.63;;
22764;SDS011;11549;50.852;3.816;2024-01-07T07:31:22;41.30;;;25.95;;
22764;SDS011;11549;50.852;3.816;2024-01-07T07:33:51;43.28;;;26.80;;
22764;SDS011;11549;50.852;3.816;2024-01-07T07:36:20;39.92;;;25.15;;
22764;SDS011;11549;50.852;3.816;2024-01-07T07:38:48;43.60;;;26.58;;
22764;SDS011;11549;50.852;3.816;2024-01-07T07:41:16;47.13;;;27.75;;
22764;SDS011;11549;50.852;3.816;2024-01-07T07:43:45;44.65;;;27.20;;
22764;SDS011;11549;50.852;3.816;2024-01-07T07:46:13;44.70;;;26.98;;
22764;SDS011;11549;50.852;3.816;2024-01-07T07:48:44;49.10;;;29.05;;
22764;SDS011;11549;50.852;3.816;2024-01-07T07:51:13;48.63;;;29.23;;
22764;SDS011;11549;50.852;3.816;2024-01-07T07:53:41;46.55;;;28.88;;
22764;SDS011;11549;50.852;3.816;2024-01-07T07:56:09;49.42;;;29.50;;
22764;SDS011;11549;50.852;3.816;2024-01-07T07:58:38;47.72;;;28.77;;
22764;SDS011;11549;50.852;3.816;2024-01-07T08:01:07;50.28;;;29.75;;
22764;SDS011;11549;50.852;3.816;2024-01-07T08:03:35;50.28;;;29.52;;
22764;SDS011;11549;50.852;3.816;2024-01-07T08:06:06;48.53;;;28.75;;
22764;SDS011;11549;50.852;3.816;2024-01-07T08:08:37;47.60;;;28.60;;
22764;SDS011;11549;50.852;3.816;2024-01-07T08:11:06;46.80;;;29.02;;
22764;SDS011;11549;50.852;3.816;2024-01-07T08:13:36;49.28;;;29.75;;
22764;SDS011;11549;50.852;3.816;2024-01-07T08:16:05;49.30;;;29.13;;
22764;SDS011;11549;50.852;3.816;2024-01-07T08:18:37;48.70;;;30.10;;
22764;SDS011;11549;50.852;3.816;2024-01-07T08:21:07;54.97;;;31.27;;
22764;SDS011;11549;50.852;3.816;2024-01-07T08:23:35;49.60;;;30.40;;
22764;SDS011;11549;50.852;3.816;2024-01-07T08:26:03;53.75;;;30.95;;
22764;SDS011;11549;50.852;3.816;2024-01-07T08:28:32;57.58;;;33.05;;
22764;SDS011;11549;50.852;3.816;2024-01-07T08:31:00;59.55;;;33.97;;
22764;SDS011;11549;50.852;3.816;2024-01-07T08:33:29;60.65;;;34.15;;
22764;SDS011;11549;50.852;3.816;2024-01-07T08:36:00;61.53;;;34.13;;
22764;SDS011;11549;50.852;3.816;2024-01-07T08:38:29;68.50;;;36.92;;
22764;SDS011;11549;50.852;3.816;2024-01-07T08:40:58;60.83;;;34.72;;
22764;SDS011;11549;50.852;3.816;2024-01-07T08:43:26;61.20;;;34.47;;
22764;SDS011;11549;50.852;3.816;2024-01-07T08:45:55;65.78;;;35.88;;
22764;SDS011;11549;50.852;3.816;2024-01-07T08:48:23;69.60;;;37.20;;
22764;SDS011;11549;50.852;3.816;2024-01-07T08:50:54;64.30;;;36.47;;
22764;SDS011;11549;50.852;3.816;2024-01-07T08:53:22;64.60;;;35.33;;
22764;SDS011;11549;50.852;3.816;2024-01-07T08:55:52;63.80;;;35.65;;
22764;SDS011;11549;50.852;3.816;2024-01-07T08:58:20;65.15;;;36.00;;
22764;SDS011;11549;50.852;3.816;2024-01-07T09:00:49;69.38;;;36.13;;
22764;SDS011;11549;50.852;3.816;2024-01-07T09:03:18;70.90;;;36.65;;
22764;SDS011;11549;50.852;3.816;2024-01-07T09:05:46;70.25;;;36.95;;
22764;SDS011;11549;50.852;3.816;2024-01-07T09:08:15;76.07;;;38.78;;
22764;SDS011;11549;50.852;3.816;2024-01-07T09:10:43;68.30;;;35.97;;
22764;SDS011;11549;50.852;3.816;2024-01-07T09:13:13;65.88;;;35.88;;
22764;SDS011;11549;50.852;3.816;2024-01-07T09:15:41;69.18;;;37.60;;
22764;SDS011;11549;50.852;3.816;2024-01-07T09:18:10;67.63;;;36.22;;
22764;SDS011;11549;50.852;3.816;2024-01-07T09:20:39;68.68;;;35.47;;
22764;SDS011;11549;50.852;3.816;2024-01-07T09:23:07;67.50;;;36.38;;
22764;SDS011;11549;50.852;3.816;2024-01-07T09:25:36;65.15;;;36.33;;
22764;SDS011;11549;50.852;3.816;2024-01-07T09:28:04;73.78;;;38.47;;
22764;SDS011;11549;50.852;3.816;2024-01-07T09:30:34;70.60;;;37.95;;
22764;SDS011;11549;50.852;3.816;2024-01-07T09:33:03;70.32;;;37.55;;
22764;SDS011;11549;50.852;3.816;2024-01-07T09:35:32;73.30;;;38.97;;
22764;SDS011;11549;50.852;3.816;2024-01-07T09:38:01;78.65;;;39.92;;
22764;SDS011;11549;50.852;3.816;2024-01-07T09:40:30;78.97;;;41.03;;
22764;SDS011;11549;50.852;3.816;2024-01-07T09:42:58;75.55;;;40.55;;
22764;SDS011;11549;50.852;3.816;2024-01-07T09:45:27;74.65;;;38.53;;
22764;SDS011;11549;50.852;3.816;2024-01-07T09:48:02;75.00;;;40.47;;
22764;SDS011;11549;50.852;3.816;2024-01-07T09:52:59;76.18;;;39.35;;
22764;SDS011;11549;50.852;3.816;2024-01-07T09:55:31;72.25;;;39.13;;
22764;SDS011;11549;50.852;3.816;2024-01-07T09:58:05;74.00;;;37.72;;
22764;SDS011;11549;50.852;3.816;2024-01-07T10:00:33;71.30;;;38.33;;
22764;SDS011;11549;50.852;3.816;2024-01-07T10:03:05;71.35;;;37.92;;
22764;SDS011;11549;50.852;3.816;2024-01-07T10:05:33;72.57;;;39.38;;
22764;SDS011;11549;50.852;3.816;2024-01-07T10:08:02;73.32;;;39.13;;
22764;SDS011;11549;50.852;3.816;2024-01-07T10:10:31;73.35;;;38.33;;
22764;SDS011;11549;50.852;3.816;2024-01-07T10:12:59;76.55;;;39.83;;
22764;SDS011;11549;50.852;3.816;2024-01-07T10:15:28;75.10;;;39.88;;
22764;SDS011;11549;50.852;3.816;2024-01-07T10:18:00;74.55;;;40.10;;
22764;SDS011;11549;50.852;3.816;2024-01-07T10:20:34;75.20;;;39.67;;
22764;SDS011;11549;50.852;3.816;2024-01-07T10:23:04;82.60;;;41.85;;
22764;SDS011;11549;50.852;3.816;2024-01-07T10:25:34;83.55;;;42.67;;
22764;SDS011;11549;50.852;3.816;2024-01-07T10:28:04;82.78;;;43.28;;
22764;SDS011;11549;50.852;3.816;2024-01-07T10:30:32;76.38;;;41.75;;
22764;SDS011;11549;50.852;3.816;2024-01-07T10:33:01;75.88;;;40.58;;
22764;SDS011;11549;50.852;3.816;2024-01-07T10:35:32;83.28;;;42.78;;
22764;SDS011;11549;50.852;3.816;2024-01-07T10:38:03;83.75;;;44.22;;
22764;SDS011;11549;50.852;3.816;2024-01-07T10:40:31;79.47;;;42.28;;
22764;SDS011;11549;50.852;3.816;2024-01-07T10:43:01;76.93;;;41.28;;
22764;SDS011;11549;50.852;3.816;2024-01-07T10:45:30;75.00;;;41.33;;
22764;SDS011;11549;50.852;3.816;2024-01-07T10:47:59;76.68;;;40.40;;
22764;SDS011;11549;50.852;3.816;2024-01-07T10:50:37;73.00;;;40.75;;
22764;SDS011;11549;50.852;3.816;2024-01-07T10:53:07;71.65;;;40.42;;
22764;SDS011;11549;50.852;3.816;2024-01-07T10:55:41;63.80;;;38.10;;
22764;SDS011;11549;50.852;3.816;2024-01-07T10:58:16;60.70;;;36.28;;
22764;SDS011;11549;50.852;3.816;2024-01-07T11:00:46;59.10;;;35.42;;
22764;SDS011;11549;50.852;3.816;2024-01-07T11:03:17;59.17;;;35.58;;
22764;SDS011;11549;50.852;3.816;2024-01-07T11:05:54;58.75;;;35.92;;
22764;SDS011;11549;50.852;3.816;2024-01-07T11:08:28;57.10;;;34.45;;
22764;SDS011;11549;50.852;3.816;2024-01-07T11:11:03;54.97;;;33.63;;
22764;SDS011;11549;50.852;3.816;2024-01-07T11:13:35;52.85;;;32.55;;
22764;SDS011;11549;50.852;3.816;2024-01-07T11:16:05;56.28;;;33.55;;
22764;SDS011;11549;50.852;3.816;2024-01-07T11:18:38;53.47;;;33.03;;
22764;SDS011;11549;50.852;3.816;2024-01-07T11:21:08;56.80;;;34.38;;
22764;SDS011;11549;50.852;3.816;2024-01-07T11:23:37;53.05;;;32.35;;
22764;SDS011;11549;50.852;3.816;2024-01-07T11:26:12;51.90;;;32.28;;
22764;SDS011;11549;50.852;3.816;2024-01-07T11:28:44;54.10;;;32.47;;
22764;SDS011;11549;50.852;3.816;2024-01-07T11:31:15;52.00;;;32.70;;
22764;SDS011;11549;50.852;3.816;2024-01-07T11:33:45;46.33;;;30.67;;
22764;SDS011;11549;50.852;3.816;2024-01-07T11:36:16;48.20;;;30.70;;
22764;SDS011;11549;50.852;3.816;2024-01-07T11:38:46;47.60;;;29.40;;
22764;SDS011;11549;50.852;3.816;2024-01-07T11:41:20;41.88;;;27.00;;
22764;SDS011;11549;50.852;3.816;2024-01-07T11:43:53;40.70;;;25.95;;
22764;SDS011;11549;50.852;3.816;2024-01-07T11:46:22;38.95;;;25.67;;
22764;SDS011;11549;50.852;3.816;2024-01-07T11:48:52;40.28;;;27.25;;
22764;SDS011;11549;50.852;3.816;2024-01-07T11:51:27;41.22;;;27.35;;
22764;SDS011;11549;50.852;3.816;2024-01-07T11:53:58;44.60;;;28.50;;
22764;SDS011;11549;50.852;3.816;2024-01-07T11:56:27;44.42;;;28.13;;
22764;SDS011;11549;50.852;3.816;2024-01-07T11:58:56;41.67;;;27.70;;
22764;SDS011;11549;50.852;3.816;2024-01-07T12:01:25;39.20;;;26.27;;
22764;SDS011;11549;50.852;3.816;2024-01-07T12:03:54;39.67;;;26.73;;
22764;SDS011;11549;50.852;3.816;2024-01-07T12:06:22;41.95;;;27.80;;
22764;SDS011;11549;50.852;3.816;2024-01-07T12:08:53;40.97;;;27.00;;
22764;SDS011;11549;50.852;3.816;2024-01-07T12:11:21;39.58;;;27.17;;
22764;SDS011;11549;50.852;3.816;2024-01-07T12:13:50;40.78;;;26.88;;
22764;SDS011;11549;50.852;3.816;2024-01-07T12:16:19;40.10;;;26.23;;
22764;SDS011;11549;50.852;3.816;2024-01-07T12:18:48;41.55;;;27.30;;
22764;SDS011;11549;50.852;3.816;2024-01-07T12:21:18;42.92;;;26.67;;
22764;SDS011;11549;50.852;3.816;2024-01-07T12:23:48;43.42;;;27.15;;
22764;SDS011;11549;50.852;3.816;2024-01-07T12:26:20;43.15;;;27.60;;
22764;SDS011;11549;50.852;3.816;2024-01-07T12:28:53;42.13;;;28.35;;
22764;SDS011;11549;50.852;3.816;2024-01-07T12:31:23;42.72;;;27.58;;
22764;SDS011;11549;50.852;3.816;2024-01-07T12:33:53;40.55;;;27.38;;
22764;SDS011;11549;50.852;3.816;2024-01-07T12:36:22;41.72;;;26.45;;
22764;SDS011;11549;50.852;3.816;2024-01-07T12:38:52;41.58;;;27.90;;
22764;SDS011;11549;50.852;3.816;2024-01-07T12:41:23;38.63;;;25.92;;
22764;SDS011;11549;50.852;3.816;2024-01-07T12:43:51;37.65;;;25.27;;
22764;SDS011;11549;50.852;3.816;2024-01-07T12:46:20;40.38;;;26.05;;
22764;SDS011;11549;50.852;3.816;2024-01-07T12:48:49;40.80;;;26.95;;
22764;SDS011;11549;50.852;3.816;2024-01-07T12:51:17;43.40;;;28.25;;
22764;SDS011;11549;50.852;3.816;2024-01-07T12:53:49;39.53;;;26.33;;
22764;SDS011;11549;50.852;3.816;2024-01-07T12:56:18;40.10;;;26.38;;
22764;SDS011;11549;50.852;3.816;2024-01-07T12:58:48;38.50;;;26.83;;
22764;SDS011;11549;50.852;3.816;2024-01-07T13:01:16;40.53;;;27.95;;
22764;SDS011;11549;50.852;3.816;2024-01-07T13:03:45;40.55;;;27.55;;
22764;SDS011;11549;50.852;3.816;2024-01-07T13:06:16;41.42;;;27.80;;
22764;SDS011;11549;50.852;3.816;2024-01-07T13:08:44;44.13;;;29.10;;
22764;SDS011;11549;50.852;3.816;2024-01-07T13:11:12;42.60;;;29.35;;
22764;SDS011;11549;50.852;3.816;2024-01-07T13:13:43;43.03;;;28.80;;
22764;SDS011;11549;50.852;3.816;2024-01-07T13:16:13;41.10;;;28.63;;
22764;SDS011;11549;50.852;3.816;2024-01-07T13:18:42;44.40;;;29.25;;
22764;SDS011;11549;50.852;3.816;2024-01-07T13:21:10;40.53;;;27.23;;
22764;SDS011;11549;50.852;3.816;2024-01-07T13:23:39;41.90;;;27.08;;
22764;SDS011;11549;50.852;3.816;2024-01-07T13:26:10;39.65;;;26.55;;
22764;SDS011;11549;50.852;3.816;2024-01-07T13:28:39;36.95;;;24.17;;
22764;SDS011;11549;50.852;3.816;2024-01-07T13:31:07;34.60;;;24.75;;
22764;SDS011;11549;50.852;3.816;2024-01-07T13:33:40;34.88;;;24.35;;
22764;SDS011;11549;50.852;3.816;2024-01-07T13:36:08;35.72;;;24.40;;
22764;SDS011;11549;50.852;3.816;2024-01-07T13:38:39;35.28;;;24.10;;
22764;SDS011;11549;50.852;3.816;2024-01-07T13:41:11;35.58;;;24.42;;
22764;SDS011;11549;50.852;3.816;2024-01-07T13:43:40;32.38;;;23.35;;
22764;SDS011;11549;50.852;3.816;2024-01-07T13:46:09;37.33;;;24.65;;
22764;SDS011;11549;50.852;3.816;2024-01-07T13:48:38;38.42;;;25.85;;
22764;SDS011;11549;50.852;3.816;2024-01-07T13:51:09;42.60;;;28.20;;
22764;SDS011;11549;50.852;3.816;2024-01-07T13:53:37;41.70;;;27.67;;
22764;SDS011;11549;50.852;3.816;2024-01-07T13:56:06;42.22;;;29.40;;
22764;SDS011;11549;50.852;3.816;2024-01-07T13:58:34;42.03;;;27.83;;
22764;SDS011;11549;50.852;3.816;2024-01-07T14:01:03;40.60;;;27.27;;
22764;SDS011;11549;50.852;3.816;2024-01-07T14:03:33;39.17;;;26.95;;
22764;SDS011;11549;50.852;3.816;2024-01-07T14:06:03;36.38;;;26.48;;
22764;SDS011;11549;50.852;3.816;2024-01-07T14:08:32;37.95;;;26.15;;
22764;SDS011;11549;50.852;3.816;2024-01-07T14:11:01;40.33;;;26.05;;
22764;SDS011;11549;50.852;3.816;2024-01-07T14:13:30;38.55;;;26.10;;
22764;SDS011;11549;50.852;3.816;2024-01-07T14:15:59;35.67;;;24.73;;
22764;SDS011;11549;50.852;3.816;2024-01-07T14:18:28;34.85;;;23.60;;
22764;SDS011;11549;50.852;3.816;2024-01-07T14:20:56;34.10;;;22.92;;
22764;SDS011;11549;50.852;3.816;2024-01-07T14:23:27;33.90;;;22.88;;
22764;SDS011;11549;50.852;3.816;2024-01-07T14:25:57;33.28;;;21.73;;
22764;SDS011;11549;50.852;3.816;2024-01-07T14:28:26;33.40;;;20.65;;
22764;SDS011;11549;50.852;3.816;2024-01-07T14:30:54;32.38;;;22.10;;
22764;SDS011;11549;50.852;3.816;2024-01-07T14:33:24;32.20;;;22.52;;
22764;SDS011;11549;50.852;3.816;2024-01-07T14:35:53;34.35;;;22.30;;
22764;SDS011;11549;50.852;3.816;2024-01-07T14:38:21;35.20;;;23.67;;
22764;SDS011;11549;50.852;3.816;2024-01-07T14:40:53;34.97;;;24.15;;